Address 0xb624219480543c54603fb6b07d5eb347e51bffe0 1

Txn Hash Method
Block
From
To
Value [Txn Fee]
0x4d242fec578bf2d344b169c93ae8aaa9883b701b63fc24c758574e7c65b7e5dbTransfer231466172022-12-03 4:21:0752 mins ago0xb624219480543c54603fb6b07d5eb347e51bffe0OUT0x6ddcc9fede6da447cfdd0bc93ab1e58afb8de2d110.72476997 AVAX0.00052525
0x1a8127f9e4ebcc182342cef7528e2c50e4a2fea2a0248ba3cf6549f8ee602815Transfer231460482022-12-03 4:01:411 hr 11 mins ago0xb624219480543c54603fb6b07d5eb347e51bffe0OUT0x5744ebeb54ead456dcc8905942adc7f74f619e3333.77884972 AVAX0.00052525
0x31c874985b2cc383ad98b43951db43d510174995fd35996f3a3ed500943f83baTransfer231453142022-12-03 3:36:111 hr 37 mins ago0xb624219480543c54603fb6b07d5eb347e51bffe0OUT0x6aa9bbe9be2358efc9236f091026a50e1fc8c8826.11992263 AVAX0.00052525
0xce255633887ce99181d6ab659dd62de29e6898ed053999ff5eeb6b9f3540140dTransfer231442512022-12-03 2:59:472 hrs 13 mins ago0xb624219480543c54603fb6b07d5eb347e51bffe0OUT0xad0b7d1ed87914fba25122b1ecf0db0fb9aba28145.20974787 AVAX0.00052525
0xfad23306552e9b71431abdb9d248539a14933d741f468889f28436fbbbb5248cTransfer231438902022-12-03 2:47:162 hrs 26 mins ago0xb624219480543c54603fb6b07d5eb347e51bffe0OUT0x650c11c69d4b0b2a51f72ae555d1d2e9f652518e2.50978374 AVAX0.00052525
0xd0aaaea00130875a6a75e33019fb1a121d5fb51e7af4f4662946c961b02a04caTransfer231436732022-12-03 2:39:422 hrs 33 mins ago0x1a5a7b60c551c63fad3dc263e6ed29c2a9627360 IN 0xb624219480543c54603fb6b07d5eb347e51bffe0304.679475 AVAX0.00052525
0x5590c2bf6404843d0b67a2573d8c84abb3248cdd66d368abbbab5f7fc1b99a50Transfer231435832022-12-03 2:36:352 hrs 37 mins ago0x95d65f94b997a59600482a3149a998753aac2b76 IN 0xb624219480543c54603fb6b07d5eb347e51bffe09.709475 AVAX0.00052525
0x282c7ba0c85727f2b9285e7f5256daa677b2add276c5c99692954b9c0e871803Transfer231435412022-12-03 2:35:082 hrs 38 mins ago0xb624219480543c54603fb6b07d5eb347e51bffe0OUT0xdc256fa62623846d919ee405d1cf98699643affb73.58699668 AVAX0.00052525
0x913aa6b7926fbec52aba6de49122fc0feaf0886cd50b0484a1ee09575520a1dcTransfer231434692022-12-03 2:32:362 hrs 41 mins ago0x106a034d1a94b05adf4906755e9e91c6aa2ecb45 IN 0xb624219480543c54603fb6b07d5eb347e51bffe081.40181128079084 AVAX0.00052525
0x261f31ad999955cff9b3c28aa33e0b0e62a3b4b94d2b142b3a9b138c02b10572Transfer231434192022-12-03 2:30:552 hrs 42 mins ago0xb624219480543c54603fb6b07d5eb347e51bffe0OUT0xdc256fa62623846d919ee405d1cf98699643affb73.58699668 AVAX0.00052525
0xf53ba51f9d9cbadafaac9f2f8b2007b84a1a6011583c0bdf2a1aa0e9b25f1718Transfer231430542022-12-03 2:18:232 hrs 55 mins ago0xb624219480543c54603fb6b07d5eb347e51bffe0OUT0xb092f491400f136794a47b63a4cb936713ce60e79.9994225 AVAX0.00052525
0x03bd1c44199b49865c17bd11473dca51e942625a0ecb9f4c7098d5128ef596e8Transfer231426192022-12-03 2:03:263 hrs 10 mins ago0xb624219480543c54603fb6b07d5eb347e51bffe0OUT0x2ce5b39691e0f68168913a631b85699b3944490d27.51975052 AVAX0.00052525
0xcc96c7c9f32250482a91417a665ac73fc682e112279489d1b00aaad788ce4915Transfer231420682022-12-03 1:44:443 hrs 28 mins ago0xf41842358bbda54206475ac6a053624ece8b4953 IN 0xb624219480543c54603fb6b07d5eb347e51bffe096.3892561 AVAX0.00052525
0x5e754be254f7087a492792e35835954ebcbe6e27546ca71365e6377443c9c7feTransfer231419522022-12-03 1:40:373 hrs 33 mins ago0x47173848dfcedf39217b01d827bb4fdded1f6ed0 IN 0xb624219480543c54603fb6b07d5eb347e51bffe03.599475 AVAX0.00052525
0xf0f58647f5bd315d404bc8c97d8303fa097175519d1a9190605327b3a5813d2cTransfer231415602022-12-03 1:27:193 hrs 46 mins ago0xb624219480543c54603fb6b07d5eb347e51bffe0OUT Pangolin: PNG Token0 AVAX0.00144087525
0xb72655fedb45b66bef3f170cab998631eb2b216fc24f34aab3cc15fd6e1ef673Transfer231415142022-12-03 1:25:413 hrs 47 mins ago0x65c9520a3075583a9cbc4910308726e1e6ee3712 IN 0xb624219480543c54603fb6b07d5eb347e51bffe021.299475 AVAX0.00052525
0x96bdb660bce0bbd7cdaff709058f21cce72214bdfd3661332d2bc549e6b19b1dTransfer231414852022-12-03 1:24:413 hrs 48 mins ago0x23704b1da81c624782459eaa90a47623197171f2 IN 0xb624219480543c54603fb6b07d5eb347e51bffe09.999475 AVAX0.00052525
0xd8bcc9f579537b7b742e851cad88fc21d3c93cb75488ef46f1e2123870130b43Transfer231413942022-12-03 1:21:273 hrs 52 mins ago0xb624219480543c54603fb6b07d5eb347e51bffe0OUT0x9a707d9d4df6fcde6b01008c20ef3c8d6f7c25ea6.6338815 AVAX0.00052525
0x5964afc37fea315cb3a5c5b6cb5dc3a376983c1d12bfe2e15801c35c80c6d61aTransfer231411302022-12-03 1:12:294 hrs 1 min ago0xb624219480543c54603fb6b07d5eb347e51bffe0OUT0x130e02c5c1dacbe76dbde9d19aaa8abbd3ed9b6c16.23276512 AVAX0.00052525
0xf523d3575b220aa8a63b12aa07a86adbf875a3dc6e0809cb373c06da7b822513Transfer231410452022-12-03 1:09:394 hrs 4 mins ago0xbbe09586924a9b3aac1ae6442dbc96b626a82293 IN 0xb624219480543c54603fb6b07d5eb347e51bffe02.061721988369876 AVAX0.00052525
0x77285eabcf0475cc0bcd1937215a9f9a4b148d10f967b0474d9c014988aaa943Transfer231410112022-12-03 1:08:304 hrs 5 mins ago0xb624219480543c54603fb6b07d5eb347e51bffe0OUT0xcc61e7e33083d4931f8edc12aff72f2d223e8c743.48909992 AVAX0.00052525
0x35d7f446e79a9a78829234adbc6ece67bae740dbdfe1b19a5862b6f870f549aeTransfer231407782022-12-03 1:00:404 hrs 13 mins ago0x448be966790f0ef3c0aabc2c008e4bb4e5b49556 IN 0xb624219480543c54603fb6b07d5eb347e51bffe040.9994225 AVAX0.00052525
0xa5613bbd58022e8f92321390dbce844e014373a215a37d6ddb3ec2b6507d1ae6Transfer231407772022-12-03 1:00:384 hrs 13 mins ago0xaa52209ff96bb3c39b0fe8f850e14d1895397d26 IN 0xb624219480543c54603fb6b07d5eb347e51bffe03.722175 AVAX0.00052525
0x06b6dcb9fce5c5a1d3903d13e2d0c12f2a91436c1cd2af70459a7125c143a7c8Transfer231407112022-12-03 0:58:254 hrs 15 mins ago0xb624219480543c54603fb6b07d5eb347e51bffe0OUT Pangolin: PNG Token0 AVAX0.00144117525
0x4ae5db096deb2e01f0d4e5c4aee31f4d083960327081a5f56581f996d5222e7eTransfer231406892022-12-03 0:57:424 hrs 15 mins ago0x6f06fc2cb45ecaf18e176c95d6c72b533e6291d4 IN 0xb624219480543c54603fb6b07d5eb347e51bffe00.35375251 AVAX0.00052525
[ Download CSV Export 
Parent Txn Hash Block From To Value
Loading

Contract Name:
0

Compiler Version
0

Optimization Enabled:
0

Other Settings:
-NA-
Block Transaction Gas Used Reward
Age Block Fee Address BC Fee Address Voting Power Jailed Incoming
Block Uncle Number Difficulty Gas Used Reward
Loading
Make sure to use the "Vote Down" button for any spammy posts, and the "Vote Up" for interesting conversations.